Time;durP1;ratioP1;P1;durP2;ratioP2;P2;SDS_P1;SDS_P2;PMS_P1;PMS_P2;Temp;Humidity;BMP_temperature;BMP_pressure;BME280_temperature;BME280_humidity;BME280_pressure;Samples;Min_cycle;Max_cycle;Signal;HPM_P1;HPM_P2
2023/06/10 00:01:04;;;;;;;;;;;13.30;67.20;;;;;;4123495;28;19914;-85
2023/06/10 00:03:26;;;;;;;;;;;13.30;67.40;;;;;;4139924;28;19985;-84
2023/06/10 00:05:47;;;;;;;;;;;13.20;67.80;;;;;;4138078;28;20003;-85
2023/06/10 00:08:08;;;;;;;;;;;13.30;68.00;;;;;;4136505;28;19925;-84
2023/06/10 00:10:28;;;;;;;;;;;13.20;67.90;;;;;;4126051;28;19921;-81
2023/06/10 00:12:49;;;;;;;;;;;13.30;68.00;;;;;;4140500;28;19952;-84
2023/06/10 00:15:10;;;;;;;;;;;13.30;68.00;;;;;;4131324;28;19918;-83
2023/06/10 00:17:32;;;;;;;;;;;13.20;68.00;;;;;;4143127;28;19921;-83
2023/06/10 00:19:53;;;;;;;;;;;13.20;68.40;;;;;;4146267;28;20016;-84
2023/06/10 00:22:14;;;;;;;;;;;13.30;68.40;;;;;;4146093;28;19917;-85
2023/06/10 00:24:35;;;;;;;;;;;13.20;69.40;;;;;;4134211;28;20087;-83
2023/06/10 00:26:56;;;;;;;;;;;13.20;68.80;;;;;;4139461;28;19921;-83
2023/06/10 00:29:16;;;;;;;;;;;13.20;68.70;;;;;;4140707;28;20426;-84
2023/06/10 00:31:37;;;;;;;;;;;13.20;68.70;;;;;;4143976;28;20012;-82
2023/06/10 00:33:58;;;;;;;;;;;13.10;68.70;;;;;;4125414;28;19953;-84
2023/06/10 00:36:19;;;;;;;;;;;13.30;68.70;;;;;;4140354;28;19981;-85
2023/06/10 00:38:40;;;;;;;;;;;13.20;68.70;;;;;;4142550;28;19929;-83
2023/06/10 00:41:01;;;;;;;;;;;13.20;68.60;;;;;;4143855;28;19924;-83
2023/06/10 00:43:22;;;;;;;;;;;13.20;68.80;;;;;;4137420;28;20383;-85
2023/06/10 00:45:43;;;;;;;;;;;13.10;68.70;;;;;;4125369;28;19918;-86
2023/06/10 00:48:04;;;;;;;;;;;13.10;68.70;;;;;;4144042;28;19929;-85
2023/06/10 00:50:25;;;;;;;;;;;13.10;68.60;;;;;;4145863;28;20149;-84
2023/06/10 00:52:48;;;;;;;;;;;13.10;68.50;;;;;;4127656;28;19925;-86
2023/06/10 00:55:09;;;;;;;;;;;13.20;68.40;;;;;;4132760;28;20415;-84
2023/06/10 00:57:30;;;;;;;;;;;13.10;68.00;;;;;;4149005;28;20005;-85
2023/06/10 00:59:51;;;;;;;;;;;13.20;67.90;;;;;;4129335;28;19925;-84
2023/06/10 01:02:11;;;;;;;;;;;13.00;67.70;;;;;;4140247;28;19993;-84
2023/06/10 01:04:32;;;;;;;;;;;13.10;67.50;;;;;;4128932;28;20408;-83
2023/06/10 01:06:57;;;;;;;;;;;13.00;67.40;;;;;;4145820;28;19913;-85
2023/06/10 01:09:18;;;;;;;;;;;13.00;67.50;;;;;;4139189;28;19918;-81
2023/06/10 01:11:43;;;;;;;;;;;13.10;67.90;;;;;;4129456;28;19918;-84
2023/06/10 01:14:05;;;;;;;;;;;13.00;68.00;;;;;;4139579;28;20111;-82
2023/06/10 01:16:26;;;;;;;;;;;13.10;67.90;;;;;;4143962;28;19914;-83
2023/06/10 01:18:47;;;;;;;;;;;13.10;67.50;;;;;;4142271;28;19918;-83
2023/06/10 01:21:09;;;;;;;;;;;13.10;66.90;;;;;;4142401;28;19944;-86
2023/06/10 01:23:30;;;;;;;;;;;13.20;66.60;;;;;;4140452;28;20065;-84
2023/06/10 01:25:59;;;;;;;;;;;13.00;66.50;;;;;;4140117;28;19957;-82
2023/06/10 01:28:29;;;;;;;;;;;13.10;66.60;;;;;;4143593;28;19918;-82
2023/06/10 01:30:52;;;;;;;;;;;13.10;66.80;;;;;;4125989;28;19989;-83
2023/06/10 01:33:15;;;;;;;;;;;13.20;66.80;;;;;;4140875;28;19918;-85
2023/06/10 01:35:36;;;;;;;;;;;13.20;66.90;;;;;;4142405;28;19921;-84
2023/06/10 01:37:58;;;;;;;;;;;13.20;66.70;;;;;;4142909;28;19922;-82
2023/06/10 01:40:19;;;;;;;;;;;13.20;66.60;;;;;;4140742;28;19921;-82
2023/06/10 01:42:40;;;;;;;;;;;13.10;66.30;;;;;;4128957;28;19921;-86
2023/06/10 01:45:01;;;;;;;;;;;13.20;66.20;;;;;;4143529;28;19920;-84
2023/06/10 01:47:22;;;;;;;;;;;13.20;66.20;;;;;;4144765;28;19945;-84
2023/06/10 01:49:43;;;;;;;;;;;13.20;66.20;;;;;;4129549;28;19914;-85
2023/06/10 01:52:04;;;;;;;;;;;13.30;66.20;;;;;;4144147;28;19914;-83
2023/06/10 01:54:24;;;;;;;;;;;13.20;66.50;;;;;;4141349;28;19913;-85
2023/06/10 01:56:45;;;;;;;;;;;13.30;66.70;;;;;;4142104;28;20394;-85
2023/06/10 01:59:06;;;;;;;;;;;13.20;66.60;;;;;;4130635;28;19926;-82
2023/06/10 02:01:27;;;;;;;;;;;13.10;66.60;;;;;;4128389;28;19922;-85
2023/06/10 02:03:48;;;;;;;;;;;13.20;66.50;;;;;;4142930;28;19926;-84
2023/06/10 02:06:09;;;;;;;;;;;13.20;66.50;;;;;;4140830;28;20016;-84
2023/06/10 02:08:30;;;;;;;;;;;13.20;66.10;;;;;;4143115;28;19918;-79
2023/06/10 02:13:05;;;;;;;;;;;13.20;65.70;;;;;;4128567;28;19929;-83
2023/06/10 02:15:26;;;;;;;;;;;13.20;65.50;;;;;;4127587;28;19957;-84
2023/06/10 02:17:48;;;;;;;;;;;13.20;65.30;;;;;;4123481;28;19921;-83
2023/06/10 02:20:10;;;;;;;;;;;13.20;65.20;;;;;;4110428;28;19921;-81
2023/06/10 02:22:31;;;;;;;;;;;13.20;65.00;;;;;;4122009;28;20288;-81
2023/06/10 02:24:52;;;;;;;;;;;13.20;65.80;;;;;;4119028;28;19953;-82
2023/06/10 02:27:13;;;;;;;;;;;13.20;65.10;;;;;;4122450;28;19926;-85
2023/06/10 02:29:35;;;;;;;;;;;13.20;65.20;;;;;;4125141;28;19921;-82
2023/06/10 02:31:56;;;;;;;;;;;13.30;65.30;;;;;;4123148;28;19917;-83
2023/06/10 02:34:17;;;;;;;;;;;13.20;65.40;;;;;;4109236;28;19918;-84
2023/06/10 02:36:38;;;;;;;;;;;13.40;65.80;;;;;;4106686;28;19993;-81
2023/06/10 02:38:59;;;;;;;;;;;13.30;65.60;;;;;;4109659;28;19954;-82
2023/06/10 02:41:21;;;;;;;;;;;13.30;66.10;;;;;;4126074;28;19918;-83
2023/06/10 02:43:42;;;;;;;;;;;13.30;66.10;;;;;;4122423;28;20416;-81
2023/06/10 02:46:03;;;;;;;;;;;13.30;66.10;;;;;;4124031;28;19918;-82
2023/06/10 02:48:24;;;;;;;;;;;13.40;66.10;;;;;;4127674;28;19922;-86
2023/06/10 02:50:45;;;;;;;;;;;13.30;65.80;;;;;;4145796;28;19906;-86
2023/06/10 02:53:06;;;;;;;;;;;13.40;65.90;;;;;;4144444;28;19925;-86
2023/06/10 02:55:27;;;;;;;;;;;13.30;65.90;;;;;;4145246;28;19953;-85
2023/06/10 02:57:48;;;;;;;;;;;13.40;65.80;;;;;;4137979;28;19941;-86
2023/06/10 03:00:10;;;;;;;;;;;13.40;65.80;;;;;;4144794;28;19914;-87
2023/06/10 03:02:31;;;;;;;;;;;13.40;66.40;;;;;;4120956;28;19922;-82
2023/06/10 03:04:53;;;;;;;;;;;13.40;66.60;;;;;;4121722;28;19921;-81
2023/06/10 03:07:14;;;;;;;;;;;13.40;66.60;;;;;;4122716;28;19914;-81
2023/06/10 03:09:35;;;;;;;;;;;13.50;66.80;;;;;;4112785;28;19914;-84
2023/06/10 03:11:56;;;;;;;;;;;13.40;66.80;;;;;;4109475;28;20017;-83
2023/06/10 03:14:17;;;;;;;;;;;13.40;67.10;;;;;;4121095;28;20624;-81
2023/06/10 03:16:40;;;;;;;;;;;13.40;67.10;;;;;;4108607;28;19914;-83
2023/06/10 03:19:01;;;;;;;;;;;13.40;67.50;;;;;;4122426;28;19917;-82
2023/06/10 03:21:22;;;;;;;;;;;13.40;67.60;;;;;;4122061;28;19933;-85
2023/06/10 03:23:42;;;;;;;;;;;13.40;68.30;;;;;;4121587;28;20004;-82
2023/06/10 03:26:04;;;;;;;;;;;13.40;67.50;;;;;;4110566;28;20435;-83
2023/06/10 03:28:25;;;;;;;;;;;13.40;68.40;;;;;;4124896;28;20362;-82
2023/06/10 03:30:47;;;;;;;;;;;13.40;67.60;;;;;;4110322;28;19925;-85
2023/06/10 03:33:07;;;;;;;;;;;13.50;67.60;;;;;;4111639;28;19917;-83
2023/06/10 03:35:29;;;;;;;;;;;13.40;67.40;;;;;;4111257;28;20392;-83
2023/06/10 03:37:50;;;;;;;;;;;13.40;67.40;;;;;;4111304;28;20491;-82
2023/06/10 03:40:11;;;;;;;;;;;13.50;67.30;;;;;;4123044;28;20082;-83
2023/06/10 03:42:31;;;;;;;;;;;13.40;67.20;;;;;;4123796;28;19922;-81
2023/06/10 03:44:52;;;;;;;;;;;13.40;67.40;;;;;;4115093;28;19914;-82
2023/06/10 03:47:13;;;;;;;;;;;13.40;67.60;;;;;;4129204;28;19925;-84
2023/06/10 03:49:36;;;;;;;;;;;13.50;67.70;;;;;;4123647;28;19918;-81
2023/06/10 03:51:57;;;;;;;;;;;13.50;67.80;;;;;;4127461;28;19922;-85
2023/06/10 03:54:17;;;;;;;;;;;13.70;67.70;;;;;;4123993;28;19949;-82
2023/06/10 03:56:39;;;;;;;;;;;13.70;67.60;;;;;;4121190;28;19968;-84
2023/06/10 03:59:00;;;;;;;;;;;13.60;67.30;;;;;;4114714;28;19918;-83
2023/06/10 04:01:21;;;;;;;;;;;13.70;67.40;;;;;;4127195;28;19921;-83
2023/06/10 04:03:43;;;;;;;;;;;13.70;67.30;;;;;;4111378;28;19918;-86
2023/06/10 04:06:04;;;;;;;;;;;13.60;66.70;;;;;;4131960;28;19950;-84
2023/06/10 04:08:25;;;;;;;;;;;13.70;66.80;;;;;;4134754;28;19918;-83
2023/06/10 04:10:46;;;;;;;;;;;13.70;66.50;;;;;;4116275;28;19918;-84
2023/06/10 04:13:07;;;;;;;;;;;13.80;66.60;;;;;;4115138;28;19949;-83
2023/06/10 04:15:28;;;;;;;;;;;13.80;66.90;;;;;;4109332;28;19914;-81
2023/06/10 04:17:49;;;;;;;;;;;13.90;66.60;;;;;;4126378;28;19922;-83
2023/06/10 04:20:10;;;;;;;;;;;13.90;66.30;;;;;;4119146;28;19968;-81
2023/06/10 04:22:30;;;;;;;;;;;14.00;66.40;;;;;;4121844;28;20452;-82
2023/06/10 04:24:51;;;;;;;;;;;14.10;66.20;;;;;;4120724;28;19964;-81
2023/06/10 04:27:12;;;;;;;;;;;14.00;65.80;;;;;;4123220;28;19922;-82
2023/06/10 04:29:33;;;;;;;;;;;14.10;65.50;;;;;;4108343;28;19983;-82
2023/06/10 04:31:54;;;;;;;;;;;14.20;65.70;;;;;;4123585;28;19921;-82
2023/06/10 04:34:15;;;;;;;;;;;14.30;65.20;;;;;;4106760;28;19941;-83
2023/06/10 04:36:35;;;;;;;;;;;14.30;64.80;;;;;;4122593;28;19922;-82
2023/06/10 04:38:56;;;;;;;;;;;14.30;64.40;;;;;;4121468;28;19993;-81
2023/06/10 04:41:17;;;;;;;;;;;14.40;63.60;;;;;;4108513;28;19977;-83
2023/06/10 04:43:38;;;;;;;;;;;14.30;64.20;;;;;;4117732;28;19933;-83
2023/06/10 04:45:59;;;;;;;;;;;14.30;63.10;;;;;;4107779;28;19953;-82
2023/06/10 04:48:20;;;;;;;;;;;14.40;63.20;;;;;;4120962;28;20583;-82
2023/06/10 04:50:41;;;;;;;;;;;14.40;63.20;;;;;;4118555;28;19917;-83
2023/06/10 04:53:01;;;;;;;;;;;14.40;62.50;;;;;;4117578;28;19914;-80
2023/06/10 04:55:22;;;;;;;;;;;14.50;62.20;;;;;;4119230;28;19928;-84
2023/06/10 04:57:43;;;;;;;;;;;14.50;61.70;;;;;;4118047;28;20415;-80
2023/06/10 05:00:06;;;;;;;;;;;14.60;61.10;;;;;;4104908;28;20400;-82
2023/06/10 05:02:26;;;;;;;;;;;14.50;61.20;;;;;;4123577;28;20435;-83
2023/06/10 05:04:47;;;;;;;;;;;14.60;61.20;;;;;;4126271;28;20296;-86
2023/06/10 05:07:08;;;;;;;;;;;14.60;60.90;;;;;;4128320;28;19930;-85
2023/06/10 05:09:29;;;;;;;;;;;14.60;60.90;;;;;;4126630;28;19993;-82
2023/06/10 05:11:50;;;;;;;;;;;14.70;60.80;;;;;;4126883;28;20406;-82
2023/06/10 05:14:11;;;;;;;;;;;14.70;60.50;;;;;;4124776;28;20138;-81
2023/06/10 05:16:32;;;;;;;;;;;14.70;60.50;;;;;;4126083;28;19956;-82
2023/06/10 05:18:53;;;;;;;;;;;14.80;60.80;;;;;;4130167;28;19914;-82
2023/06/10 05:21:15;;;;;;;;;;;14.70;60.00;;;;;;4126559;28;19942;-84
2023/06/10 05:23:36;;;;;;;;;;;14.80;60.40;;;;;;4125462;28;20311;-83
2023/06/10 05:25:58;;;;;;;;;;;14.90;60.60;;;;;;4123236;28;19969;-81
2023/06/10 05:28:19;;;;;;;;;;;14.90;59.80;;;;;;4108120;28;19951;-83
2023/06/10 05:30:40;;;;;;;;;;;15.00;59.90;;;;;;4125278;28;19913;-82
2023/06/10 05:33:01;;;;;;;;;;;14.90;59.80;;;;;;4125045;28;19921;-86
2023/06/10 05:35:22;;;;;;;;;;;15.00;60.10;;;;;;4110188;28;19918;-82
2023/06/10 05:37:43;;;;;;;;;;;15.10;60.10;;;;;;4125652;28;19989;-83
2023/06/10 05:40:04;;;;;;;;;;;15.10;59.70;;;;;;4125745;28;19914;-82
2023/06/10 05:42:25;;;;;;;;;;;15.10;59.90;;;;;;4115507;28;19918;-85
2023/06/10 05:44:46;;;;;;;;;;;15.10;59.80;;;;;;4114841;28;19961;-83
2023/06/10 05:47:07;;;;;;;;;;;15.20;60.10;;;;;;4127698;28;20549;-84
2023/06/10 05:49:27;;;;;;;;;;;15.20;60.00;;;;;;4127997;28;20288;-83
2023/06/10 05:51:48;;;;;;;;;;;15.20;59.60;;;;;;4123946;28;19914;-84
2023/06/10 05:54:09;;;;;;;;;;;15.20;59.80;;;;;;4116955;28;19914;-83
2023/06/10 05:56:30;;;;;;;;;;;15.20;59.90;;;;;;4115899;28;20367;-85
2023/06/10 05:58:51;;;;;;;;;;;15.30;60.20;;;;;;4124267;28;19922;-85
2023/06/10 06:01:11;;;;;;;;;;;15.40;59.90;;;;;;4127835;28;19914;-84
2023/06/10 06:03:32;;;;;;;;;;;15.40;60.10;;;;;;4109891;28;20389;-84
2023/06/10 06:05:53;;;;;;;;;;;15.50;60.20;;;;;;4129427;28;20398;-82
2023/06/10 06:08:17;;;;;;;;;;;15.50;60.30;;;;;;4124187;28;20375;-82
2023/06/10 06:10:38;;;;;;;;;;;15.50;59.90;;;;;;4126740;28;19925;-83
2023/06/10 06:12:59;;;;;;;;;;;15.50;59.70;;;;;;4125501;28;19925;-81
2023/06/10 06:15:19;;;;;;;;;;;15.70;60.10;;;;;;4124339;28;20356;-83
2023/06/10 06:17:40;;;;;;;;;;;15.70;60.10;;;;;;4111650;28;20683;-83
2023/06/10 06:20:01;;;;;;;;;;;15.80;59.20;;;;;;4116982;28;19921;-83
2023/06/10 06:22:22;;;;;;;;;;;15.80;59.50;;;;;;4107960;28;19946;-86
2023/06/10 06:24:43;;;;;;;;;;;15.80;59.50;;;;;;4119028;28;20273;-81
2023/06/10 06:27:04;;;;;;;;;;;15.90;59.50;;;;;;4122354;28;19921;-86
2023/06/10 06:29:25;;;;;;;;;;;15.80;59.50;;;;;;4113091;28;20500;-81
2023/06/10 06:31:46;;;;;;;;;;;15.90;59.20;;;;;;4122985;28;19922;-83
2023/06/10 06:34:07;;;;;;;;;;;16.00;59.40;;;;;;4127698;28;20017;-82
2023/06/10 06:36:28;;;;;;;;;;;16.00;59.20;;;;;;4125467;28;19914;-82
2023/06/10 06:38:48;;;;;;;;;;;16.10;59.40;;;;;;4126646;28;19917;-84
2023/06/10 06:41:09;;;;;;;;;;;16.00;59.50;;;;;;4109232;28;19972;-85
2023/06/10 06:43:33;;;;;;;;;;;16.10;59.50;;;;;;4124617;28;19922;-85
2023/06/10 06:45:54;;;;;;;;;;;16.00;58.50;;;;;;4117310;28;20402;-82
2023/06/10 06:48:45;;;;;;;;;;;16.10;59.20;;;;;;4126297;28;19925;-83
2023/06/10 06:51:05;;;;;;;;;;;16.20;59.30;;;;;;4104852;28;21760;-84
2023/06/10 06:53:26;;;;;;;;;;;16.20;58.80;;;;;;4115954;28;19928;-82
2023/06/10 06:56:23;;;;;;;;;;;16.30;59.20;;;;;;4120669;28;19921;-82
2023/06/10 06:58:43;;;;;;;;;;;16.30;59.20;;;;;;4112008;28;19973;-85
2023/06/10 07:04:16;;;;;;;;;;;16.30;58.80;;;;;;4098326;28;19925;-81
2023/06/10 07:06:38;;;;;;;;;;;16.30;58.60;;;;;;4120839;28;19946;-84
2023/06/10 07:08:58;;;;;;;;;;;16.40;58.40;;;;;;4119278;28;19964;-85
2023/06/10 07:11:20;;;;;;;;;;;16.50;58.50;;;;;;4111323;28;20332;-82
2023/06/10 07:13:41;;;;;;;;;;;16.50;58.50;;;;;;4125670;28;19925;-83
2023/06/10 07:16:02;;;;;;;;;;;16.30;58.60;;;;;;4123781;28;20357;-81
2023/06/10 07:18:22;;;;;;;;;;;16.30;58.40;;;;;;4121367;28;19913;-82
2023/06/10 07:20:43;;;;;;;;;;;16.40;58.20;;;;;;4131421;28;20497;-83
2023/06/10 07:23:04;;;;;;;;;;;16.40;58.20;;;;;;4122693;28;19959;-84
2023/06/10 07:25:25;;;;;;;;;;;16.40;57.80;;;;;;4124413;28;19922;-84
2023/06/10 07:27:46;;;;;;;;;;;16.50;58.00;;;;;;4121614;28;19917;-83
2023/06/10 07:30:08;;;;;;;;;;;16.50;58.50;;;;;;4123335;28;20005;-82
2023/06/10 07:32:29;;;;;;;;;;;16.50;58.00;;;;;;4118284;28;20015;-82
2023/06/10 07:34:50;;;;;;;;;;;16.50;58.00;;;;;;4123455;28;19922;-84
2023/06/10 07:37:11;;;;;;;;;;;16.50;58.30;;;;;;4111342;28;20095;-84
2023/06/10 07:39:32;;;;;;;;;;;16.50;58.20;;;;;;4123467;28;19964;-84
2023/06/10 07:41:53;;;;;;;;;;;16.50;58.20;;;;;;4120428;28;19926;-83
2023/06/10 07:44:16;;;;;;;;;;;16.50;58.50;;;;;;4109674;28;21278;-82
2023/06/10 07:46:37;;;;;;;;;;;16.50;58.50;;;;;;4124288;28;19921;-82
2023/06/10 07:48:58;;;;;;;;;;;16.60;58.80;;;;;;4123019;28;19914;-84
2023/06/10 07:51:19;;;;;;;;;;;16.60;58.80;;;;;;4124455;28;19922;-82
2023/06/10 07:53:39;;;;;;;;;;;16.60;58.80;;;;;;4124624;28;19914;-83
2023/06/10 07:56:00;;;;;;;;;;;16.70;59.10;;;;;;4126633;28;19965;-83
2023/06/10 07:58:22;;;;;;;;;;;16.70;58.60;;;;;;4120289;28;20348;-83
2023/06/10 08:00:42;;;;;;;;;;;16.80;58.20;;;;;;4122050;28;19922;-81
2023/06/10 08:03:03;;;;;;;;;;;16.70;57.90;;;;;;4122037;28;20302;-81
2023/06/10 08:05:24;;;;;;;;;;;16.80;58.30;;;;;;4105215;28;20002;-83
2023/06/10 08:07:45;;;;;;;;;;;16.80;58.50;;;;;;4122450;28;20041;-82
2023/06/10 08:10:06;;;;;;;;;;;16.90;58.40;;;;;;4120415;28;20430;-85
2023/06/10 08:12:27;;;;;;;;;;;16.90;58.50;;;;;;4118730;28;19922;-81
2023/06/10 08:14:48;;;;;;;;;;;16.90;58.60;;;;;;4128353;28;19965;-84
2023/06/10 08:17:09;;;;;;;;;;;16.90;58.00;;;;;;4122868;28;20652;-81
2023/06/10 08:19:30;;;;;;;;;;;17.00;58.10;;;;;;4122631;28;20298;-84
2023/06/10 08:21:51;;;;;;;;;;;16.90;57.80;;;;;;4125267;28;19922;-85
2023/06/10 08:24:12;;;;;;;;;;;17.00;58.20;;;;;;4112993;28;19922;-86
2023/06/10 08:26:32;;;;;;;;;;;17.10;58.20;;;;;;4125750;28;20153;-87
2023/06/10 08:28:56;;;;;;;;;;;17.00;58.00;;;;;;4125133;28;19961;-83
2023/06/10 08:31:17;;;;;;;;;;;17.10;58.20;;;;;;4123324;28;19918;-85
2023/06/10 08:33:38;;;;;;;;;;;17.10;58.50;;;;;;4125710;28;19941;-83
2023/06/10 08:35:59;;;;;;;;;;;17.20;59.40;;;;;;4111288;28;19918;-83
2023/06/10 08:38:20;;;;;;;;;;;17.10;59.00;;;;;;4127763;28;20396;-85
2023/06/10 08:40:40;;;;;;;;;;;17.10;58.60;;;;;;4111578;28;19922;-83
2023/06/10 08:43:10;;;;;;;;;;;17.10;58.60;;;;;;4131113;28;19929;-86
2023/06/10 08:45:31;;;;;;;;;;;17.10;58.00;;;;;;4113872;28;19922;-85
2023/06/10 08:47:53;;;;;;;;;;;17.20;58.70;;;;;;4123124;28;19918;-82
2023/06/10 08:50:15;;;;;;;;;;;17.20;58.70;;;;;;4116089;28;19914;-82
2023/06/10 08:52:37;;;;;;;;;;;17.30;58.30;;;;;;4130852;28;19926;-83
2023/06/10 08:55:10;;;;;;;;;;;17.30;58.30;;;;;;4126141;28;19960;-85
2023/06/10 08:57:31;;;;;;;;;;;17.40;58.10;;;;;;4124523;28;19915;-83
2023/06/10 08:59:53;;;;;;;;;;;17.50;58.20;;;;;;4126086;28;19921;-85
2023/06/10 09:02:14;;;;;;;;;;;17.50;58.30;;;;;;4115049;28;19929;-82
2023/06/10 09:04:36;;;;;;;;;;;17.60;58.80;;;;;;4126498;28;19996;-84
2023/06/10 09:06:56;;;;;;;;;;;17.70;58.50;;;;;;4122730;28;19918;-85
2023/06/10 09:09:18;;;;;;;;;;;17.80;57.90;;;;;;4126977;28;19989;-83
2023/06/10 09:11:40;;;;;;;;;;;17.80;57.00;;;;;;4114526;28;19918;-84
2023/06/10 09:14:01;;;;;;;;;;;17.90;57.30;;;;;;4128383;28;20270;-87
2023/06/10 09:16:22;;;;;;;;;;;18.00;58.10;;;;;;4113836;28;20458;-82
2023/06/10 09:18:43;;;;;;;;;;;18.10;57.70;;;;;;4126468;28;20005;-82
2023/06/10 09:21:04;;;;;;;;;;;18.10;57.80;;;;;;4124842;28;19932;-82
2023/06/10 09:23:25;;;;;;;;;;;18.00;56.30;;;;;;4124271;28;20181;-81
2023/06/10 09:25:46;;;;;;;;;;;18.10;56.50;;;;;;4124812;28;19918;-81
2023/06/10 09:28:12;;;;;;;;;;;18.10;56.80;;;;;;4124385;28;19918;-79
2023/06/10 09:30:34;;;;;;;;;;;18.20;56.30;;;;;;4129832;28;19937;-82
2023/06/10 09:32:58;;;;;;;;;;;18.20;56.00;;;;;;4129995;28;19913;-81
2023/06/10 09:35:19;;;;;;;;;;;18.30;56.90;;;;;;4126238;28;20086;-82
2023/06/10 09:37:40;;;;;;;;;;;18.40;56.50;;;;;;4124729;28;20264;-83
2023/06/10 09:40:05;;;;;;;;;;;18.40;56.10;;;;;;4110502;28;19941;-84
2023/06/10 09:42:26;;;;;;;;;;;18.40;55.70;;;;;;4129744;28;19918;-84
2023/06/10 09:44:51;;;;;;;;;;;18.50;56.10;;;;;;4128977;28;19918;-84
2023/06/10 09:47:19;;;;;;;;;;;18.50;56.60;;;;;;4128788;28;19926;-85
2023/06/10 09:49:40;;;;;;;;;;;18.60;55.90;;;;;;4124917;28;19953;-85
2023/06/10 09:52:05;;;;;;;;;;;18.70;56.20;;;;;;4130634;28;19917;-84
2023/06/10 09:54:31;;;;;;;;;;;18.70;55.60;;;;;;4129275;28;19973;-85
2023/06/10 09:56:52;;;;;;;;;;;18.80;55.30;;;;;;4127723;28;19920;-86
2023/06/10 09:59:12;;;;;;;;;;;18.90;55.40;;;;;;4117043;28;20117;-84
2023/06/10 10:01:34;;;;;;;;;;;18.90;55.40;;;;;;4123522;28;19918;-84
2023/06/10 10:03:55;;;;;;;;;;;18.90;54.30;;;;;;4115718;28;19918;-85
2023/06/10 10:06:16;;;;;;;;;;;19.00;54.60;;;;;;4122247;28;19929;-87
2023/06/10 10:08:37;;;;;;;;;;;19.10;54.50;;;;;;4115585;28;19933;-84
2023/06/10 10:10:58;;;;;;;;;;;19.20;54.40;;;;;;4126538;28;20019;-85
2023/06/10 10:13:19;;;;;;;;;;;19.20;54.10;;;;;;4117165;28;20069;-84
2023/06/10 10:15:41;;;;;;;;;;;19.20;53.80;;;;;;4122902;28;20009;-86
2023/06/10 10:18:05;;;;;;;;;;;19.30;54.10;;;;;;4127833;28;19925;-85
2023/06/10 10:20:28;;;;;;;;;;;19.30;53.20;;;;;;4127861;28;19918;-84
2023/06/10 10:22:49;;;;;;;;;;;19.20;52.70;;;;;;4132191;28;19922;-84
2023/06/10 10:25:11;;;;;;;;;;;19.10;52.60;;;;;;4125051;28;19922;-84
2023/06/10 10:27:36;;;;;;;;;;;19.20;52.50;;;;;;4129655;28;19924;-84
2023/06/10 10:29:58;;;;;;;;;;;19.20;52.80;;;;;;4115068;28;20462;-86
2023/06/10 10:32:21;;;;;;;;;;;19.10;52.20;;;;;;4126685;28;19918;-84
2023/06/10 10:34:42;;;;;;;;;;;19.10;51.70;;;;;;4127089;28;20001;-83
2023/06/10 10:37:03;;;;;;;;;;;19.20;52.20;;;;;;4110217;28;19941;-84
2023/06/10 10:39:24;;;;;;;;;;;19.20;52.30;;;;;;4123509;28;19945;-85
2023/06/10 10:41:46;;;;;;;;;;;19.30;52.40;;;;;;4114662;28;19914;-84
2023/06/10 10:44:11;;;;;;;;;;;19.20;52.10;;;;;;4117121;28;19926;-81
2023/06/10 10:46:41;;;;;;;;;;;19.30;52.40;;;;;;4111984;28;20024;-83
2023/06/10 10:49:02;;;;;;;;;;;19.40;52.00;;;;;;4126303;28;19999;-83
2023/06/10 10:51:24;;;;;;;;;;;19.40;52.20;;;;;;4125033;28;19969;-82
2023/06/10 10:54:05;;;;;;;;;;;19.40;51.90;;;;;;4127565;28;20005;-84
2023/06/10 10:56:30;;;;;;;;;;;19.40;50.80;;;;;;4127748;28;19913;-85
2023/06/10 10:59:07;;;;;;;;;;;19.50;51.50;;;;;;4125022;28;20008;-87
2023/06/10 11:01:39;;;;;;;;;;;19.50;50.90;;;;;;4124949;28;19920;-85
2023/06/10 11:04:00;;;;;;;;;;;19.50;50.70;;;;;;4127045;28;19945;-84
2023/06/10 11:06:21;;;;;;;;;;;19.50;50.10;;;;;;4112573;28;19928;-82
2023/06/10 11:09:02;;;;;;;;;;;19.50;50.50;;;;;;4119374;28;19960;-84
2023/06/10 11:11:27;;;;;;;;;;;19.50;50.10;;;;;;4125238;28;19917;-84
2023/06/10 11:14:00;;;;;;;;;;;19.50;49.00;;;;;;4113770;28;19925;-85
2023/06/10 11:16:21;;;;;;;;;;;19.50;50.60;;;;;;4125255;28;19921;-83
2023/06/10 11:18:41;;;;;;;;;;;19.40;50.20;;;;;;4114908;28;20249;-84
2023/06/10 11:21:04;;;;;;;;;;;19.50;50.60;;;;;;4127102;28;19961;-83
2023/06/10 11:23:28;;;;;;;;;;;19.40;50.50;;;;;;4122747;28;20500;-82
2023/06/10 11:25:49;;;;;;;;;;;19.40;49.60;;;;;;4126718;28;19924;-85
2023/06/10 11:28:19;;;;;;;;;;;19.50;50.40;;;;;;4123639;28;19918;-85
2023/06/10 11:30:42;;;;;;;;;;;19.40;50.30;;;;;;4125175;28;19937;-84
2023/06/10 11:33:02;;;;;;;;;;;19.50;50.70;;;;;;4121534;28;19917;-86
2023/06/10 11:35:23;;;;;;;;;;;19.30;50.40;;;;;;4127040;28;19922;-83
2023/06/10 11:37:44;;;;;;;;;;;19.40;50.60;;;;;;4120654;28;19917;-83
2023/06/10 11:40:06;;;;;;;;;;;19.40;50.40;;;;;;4122781;28;19922;-83
2023/06/10 11:42:27;;;;;;;;;;;19.20;49.60;;;;;;4122891;28;20009;-82
2023/06/10 11:44:52;;;;;;;;;;;19.30;50.40;;;;;;4117472;28;20041;-82
2023/06/10 11:47:13;;;;;;;;;;;19.30;50.50;;;;;;4115254;28;20001;-86
2023/06/10 11:49:34;;;;;;;;;;;19.30;50.30;;;;;;4129258;28;19925;-84
2023/06/10 11:51:56;;;;;;;;;;;19.30;51.00;;;;;;4128617;28;19973;-83
2023/06/10 11:54:17;;;;;;;;;;;19.40;50.80;;;;;;4116555;28;19981;-82
2023/06/10 11:56:38;;;;;;;;;;;19.40;50.60;;;;;;4112120;28;19919;-84
2023/06/10 11:59:04;;;;;;;;;;;19.50;51.20;;;;;;4127026;28;19962;-83
2023/06/10 12:01:26;;;;;;;;;;;19.50;51.50;;;;;;4126795;28;19965;-84
2023/06/10 12:03:46;;;;;;;;;;;19.60;51.30;;;;;;4127504;28;20017;-85
2023/06/10 12:06:07;;;;;;;;;;;19.60;51.20;;;;;;4126342;28;19922;-84
2023/06/10 12:08:28;;;;;;;;;;;19.70;50.40;;;;;;4128347;28;19914;-84
2023/06/10 12:10:49;;;;;;;;;;;19.60;50.50;;;;;;4128842;28;19925;-83
2023/06/10 12:13:10;;;;;;;;;;;19.70;50.50;;;;;;4114563;28;19925;-84
2023/06/10 12:15:32;;;;;;;;;;;19.60;50.10;;;;;;4135927;28;19924;-84
2023/06/10 12:17:53;;;;;;;;;;;19.60;50.80;;;;;;4121027;28;19918;-84
2023/06/10 12:20:30;;;;;;;;;;;19.70;50.20;;;;;;4131968;28;20409;-84
2023/06/10 12:22:50;;;;;;;;;;;19.60;50.40;;;;;;4107046;28;19985;-82
2023/06/10 12:25:11;;;;;;;;;;;19.60;50.20;;;;;;4125993;28;19932;-85
2023/06/10 12:27:33;;;;;;;;;;;19.60;50.60;;;;;;4126973;28;19914;-83
2023/06/10 12:29:55;;;;;;;;;;;19.60;50.60;;;;;;4122201;28;21197;-83
2023/06/10 12:32:16;;;;;;;;;;;19.60;50.90;;;;;;4126751;28;19918;-84
2023/06/10 12:34:40;;;;;;;;;;;19.50;50.30;;;;;;4128169;28;19925;-83
2023/06/10 12:37:02;;;;;;;;;;;19.60;50.20;;;;;;4114202;28;19929;-81
2023/06/10 12:39:23;;;;;;;;;;;19.70;50.80;;;;;;4125299;28;19914;-82
2023/06/10 12:41:48;;;;;;;;;;;19.60;50.70;;;;;;4125932;28;20020;-83
2023/06/10 12:44:09;;;;;;;;;;;19.50;49.90;;;;;;4121234;28;19945;-84
2023/06/10 12:46:35;;;;;;;;;;;19.60;50.30;;;;;;4125798;28;20521;-83
2023/06/10 12:48:56;;;;;;;;;;;19.60;50.30;;;;;;4115856;28;19981;-85
2023/06/10 12:51:18;;;;;;;;;;;19.70;51.00;;;;;;4115012;28;19969;-84
2023/06/10 12:53:38;;;;;;;;;;;19.70;50.30;;;;;;4122950;28;20118;-83
2023/06/10 12:56:02;;;;;;;;;;;19.70;50.10;;;;;;4127945;28;19914;-84
2023/06/10 12:58:23;;;;;;;;;;;19.70;51.00;;;;;;4126251;28;20454;-86
2023/06/10 13:00:43;;;;;;;;;;;19.80;50.80;;;;;;4127031;28;19914;-83
2023/06/10 13:03:07;;;;;;;;;;;19.80;50.80;;;;;;4125711;28;19968;-81
2023/06/10 13:05:28;;;;;;;;;;;19.80;50.50;;;;;;4127329;28;19958;-84
2023/06/10 13:07:49;;;;;;;;;;;19.70;50.40;;;;;;4129902;28;20430;-83
2023/06/10 13:10:10;;;;;;;;;;;19.80;50.30;;;;;;4129572;28;19918;-84
2023/06/10 13:12:31;;;;;;;;;;;19.70;50.10;;;;;;4124725;28;19937;-85
2023/06/10 13:14:53;;;;;;;;;;;19.70;51.00;;;;;;4114085;28;19925;-84
2023/06/10 13:17:21;;;;;;;;;;;19.60;50.50;;;;;;4111601;28;19985;-85
2023/06/10 13:19:42;;;;;;;;;;;19.60;50.50;;;;;;4121041;28;19921;-83
2023/06/10 13:22:03;;;;;;;;;;;19.60;50.50;;;;;;4120224;28;19972;-83
2023/06/10 13:24:24;;;;;;;;;;;19.60;51.00;;;;;;4124439;28;21603;-82
2023/06/10 13:26:48;;;;;;;;;;;19.70;51.40;;;;;;4128234;28;19929;-85
2023/06/10 13:29:19;;;;;;;;;;;19.60;50.90;;;;;;4129880;28;19914;-84
2023/06/10 13:31:58;;;;;;;;;;;19.70;51.00;;;;;;4116496;28;20604;-84
2023/06/10 13:34:19;;;;;;;;;;;19.60;50.80;;;;;;4117727;28;19922;-85
2023/06/10 13:36:40;;;;;;;;;;;19.70;50.90;;;;;;4129431;28;19918;-84
2023/06/10 13:39:18;;;;;;;;;;;19.60;50.70;;;;;;4124258;28;19961;-84
2023/06/10 13:41:40;;;;;;;;;;;19.70;51.70;;;;;;4124332;28;19918;-81
2023/06/10 13:44:01;;;;;;;;;;;19.70;51.30;;;;;;4124292;28;19932;-82
2023/06/10 13:46:22;;;;;;;;;;;19.60;51.10;;;;;;4121533;28;19957;-84
2023/06/10 13:48:43;;;;;;;;;;;19.60;51.50;;;;;;4128010;28;19987;-80
2023/06/10 13:51:04;;;;;;;;;;;19.60;51.80;;;;;;4130096;28;19942;-87